Time;durP1;ratioP1;P1;durP2;ratioP2;P2;SDS_P1;SDS_P2;PMS_P1;PMS_P2;Temp;Humidity;BMP_temperature;BMP_pressure;BME280_temperature;BME280_humidity;BME280_pressure;Samples;Min_cycle;Max_cycle;Signal;HPM_P1;HPM_P2
2023/08/31 00:04:00;;;;;;;8.52;4.93;;;;;;;17.06;67.45;99040.87;7684402;32;40162;-81
2023/08/31 00:08:17;;;;;;;12.10;5.72;;;;;;;17.20;67.52;99033.16;7708885;32;40622;-81
2023/08/31 00:12:33;;;;;;;9.48;5.93;;;;;;;16.96;68.19;99039.28;7710488;32;37901;-81
2023/08/31 00:16:50;;;;;;;8.70;5.47;;;;;;;17.14;67.60;99039.19;7709953;32;37177;-80
2023/08/31 00:21:06;;;;;;;8.85;5.07;;;;;;;17.32;66.83;99042.66;7710758;32;39640;-80
2023/08/31 00:25:23;;;;;;;9.18;5.25;;;;;;;16.62;69.18;99037.50;7710470;32;39987;-81
2023/08/31 00:29:40;;;;;;;7.93;4.70;;;;;;;17.30;66.67;99037.47;7710056;32;37902;-80
2023/08/31 00:33:56;;;;;;;8.82;5.20;;;;;;;17.37;66.37;99042.44;7700013;32;37356;-81
2023/08/31 00:38:13;;;;;;;7.37;4.70;;;;;;;17.23;66.75;99061.97;7683761;32;39532;-81
2023/08/31 00:42:31;;;;;;;8.30;4.97;;;;;;;16.62;68.91;99067.75;7683678;32;38822;-81
2023/08/31 00:46:47;;;;;;;9.98;5.00;;;;;;;17.07;67.27;99067.25;7683471;32;38621;-80
2023/08/31 00:51:06;;;;;;;8.98;4.20;;;;;;;16.44;69.42;99072.53;7683592;32;37885;-81
2023/08/31 00:55:22;;;;;;;7.07;4.40;;;;;;;17.06;67.34;99058.19;7683489;32;39390;-80
2023/08/31 00:59:39;;;;;;;6.85;4.12;;;;;;;17.37;66.14;99058.97;7683357;32;39732;-80
2023/08/31 01:04:46;;;;;;;5.78;4.10;;;;;;;16.93;67.16;99058.44;7705440;32;38728;-80
2023/08/31 01:09:29;;;;;;;6.62;4.22;;;;;;;17.36;65.90;99051.84;7705264;32;36637;-81
2023/08/31 01:13:51;;;;;;;6.73;4.10;;;;;;;17.32;65.80;99056.41;7709668;32;39410;-80
2023/08/31 01:18:09;;;;;;;8.38;4.53;;;;;;;17.17;66.26;99066.88;7683575;32;40138;-80
2023/08/31 01:22:40;;;;;;;7.40;4.32;;;;;;;16.95;66.91;99075.41;7681815;32;37728;-80
2023/08/31 01:26:57;;;;;;;7.80;4.90;;;;;;;17.31;65.64;99066.62;7684881;32;37849;-80
2023/08/31 01:31:14;;;;;;;8.02;4.40;;;;;;;17.06;66.28;99077.47;7702896;32;39892;-81
2023/08/31 01:35:37;;;;;;;7.12;4.20;;;;;;;16.91;66.88;99066.22;7712881;32;39870;-80
2023/08/31 01:40:18;;;;;;;6.93;4.30;;;;;;;17.14;66.07;99072.22;7712808;32;38017;-81
2023/08/31 01:44:36;;;;;;;10.32;4.82;;;;;;;17.07;66.23;99078.25;7709709;32;36707;-80
2023/08/31 01:48:52;;;;;;;7.43;4.47;;;;;;;17.07;66.20;99072.75;7711477;32;40246;-80
2023/08/31 01:53:09;;;;;;;8.90;4.72;;;;;;;17.06;65.89;99082.16;7712643;32;40732;-80
2023/08/31 01:57:25;;;;;;;6.87;4.32;;;;;;;17.19;65.68;99072.03;7705742;32;38680;-80
2023/08/31 02:01:41;;;;;;;6.43;4.10;;;;;;;17.11;66.02;99072.91;7685808;32;37314;-81
2023/08/31 02:05:58;;;;;;;7.30;4.62;;;;;;;17.17;65.78;99080.63;7685859;32;40153;-81
2023/08/31 02:10:14;;;;;;;7.28;4.20;;;;;;;17.20;65.59;99091.00;7685945;32;39972;-81
2023/08/31 02:14:31;;;;;;;6.18;3.90;;;;;;;17.11;65.57;99086.66;7685728;32;37486;-81
2023/08/31 02:18:47;;;;;;;7.00;4.10;;;;;;;17.17;65.44;99088.91;7685670;32;37898;-80
2023/08/31 02:23:04;;;;;;;5.95;4.12;;;;;;;16.84;66.53;99086.78;7685737;32;39434;-80
2023/08/31 02:27:20;;;;;;;6.85;4.57;;;;;;;17.26;64.92;99089.66;7703678;32;40003;-80
2023/08/31 02:31:37;;;;;;;10.48;4.97;;;;;;;17.26;65.06;99095.19;7712090;32;38902;-84
2023/08/31 02:35:55;;;;;;;5.60;3.90;;;;;;;16.92;66.27;99109.94;7711597;32;37174;-81
2023/08/31 02:40:12;;;;;;;7.43;4.40;;;;;;;17.01;65.98;99102.44;7711807;32;40265;-81
2023/08/31 02:44:28;;;;;;;6.85;4.35;;;;;;;16.89;66.53;99103.13;7711930;32;40037;-80
2023/08/31 02:48:45;;;;;;;7.10;4.53;;;;;;;16.60;67.61;99103.06;7711949;32;37921;-81
2023/08/31 02:53:01;;;;;;;9.35;5.18;;;;;;;16.82;67.07;99099.25;7708242;32;37151;-81
2023/08/31 02:57:19;;;;;;;9.23;4.62;;;;;;;16.99;66.56;99098.38;7704209;32;39489;-80
2023/08/31 03:01:36;;;;;;;6.55;4.20;;;;;;;16.86;66.89;99105.75;7711915;32;39887;-81
2023/08/31 03:05:56;;;;;;;8.57;4.37;;;;;;;17.10;65.97;99110.66;7711734;32;38829;-80
2023/08/31 03:10:12;;;;;;;6.65;4.28;;;;;;;17.03;66.29;99096.59;7711844;32;37046;-80
2023/08/31 03:14:28;;;;;;;7.07;4.62;;;;;;;16.77;66.53;99108.50;7711809;32;39288;-80
2023/08/31 03:18:45;;;;;;;8.85;4.22;;;;;;;16.92;66.32;99103.59;7711469;32;39938;-80
2023/08/31 03:23:01;;;;;;;7.78;4.80;;;;;;;16.26;68.66;99110.25;7709901;32;38678;-80
2023/08/31 03:27:19;;;;;;;6.57;4.37;;;;;;;16.70;67.18;99098.00;7711440;32;37281;-80
2023/08/31 03:31:35;;;;;;;6.22;3.87;;;;;;;16.81;66.73;99101.19;7711640;32;40088;-80
2023/08/31 03:35:51;;;;;;;8.75;4.87;;;;;;;16.46;67.67;99106.81;7711223;32;40830;-80
2023/08/31 03:40:09;;;;;;;8.80;4.85;;;;;;;16.47;67.60;99122.19;7711371;32;37918;-81
2023/08/31 03:44:25;;;;;;;9.32;4.97;;;;;;;16.50;67.45;99124.28;7711469;32;36989;-81
2023/08/31 03:48:41;;;;;;;9.50;5.25;;;;;;;16.65;67.06;99133.16;7709879;32;39501;-81
2023/08/31 03:52:58;;;;;;;8.65;4.78;;;;;;;16.64;67.06;99139.78;7684618;32;40848;-81
2023/08/31 03:57:14;;;;;;;8.60;4.95;;;;;;;16.70;66.86;99130.22;7684497;32;37796;-81
2023/08/31 04:01:31;;;;;;;6.50;4.37;;;;;;;16.63;67.18;99138.19;7684549;32;36728;-81
2023/08/31 04:05:47;;;;;;;8.82;4.97;;;;;;;16.76;66.55;99145.41;7684463;32;39933;-80
2023/08/31 04:10:04;;;;;;;7.00;4.55;;;;;;;16.83;66.24;99139.41;7684390;32;40814;-80
2023/08/31 04:14:21;;;;;;;7.40;4.85;;;;;;;16.76;66.67;99139.91;7684300;32;38090;-81
2023/08/31 04:18:37;;;;;;;7.30;4.45;;;;;;;16.96;66.20;99143.12;7697015;32;37230;-80
2023/08/31 04:22:53;;;;;;;8.18;4.90;;;;;;;16.92;66.31;99145.72;7710893;32;39489;-81
2023/08/31 04:27:10;;;;;;;6.85;4.78;;;;;;;16.74;66.93;99150.44;7710458;32;40015;-80
2023/08/31 04:31:26;;;;;;;6.72;4.80;;;;;;;16.66;67.21;99162.28;7710521;32;38627;-80
2023/08/31 04:35:43;;;;;;;8.75;5.32;;;;;;;16.50;67.98;99165.53;7710602;32;36916;-80
2023/08/31 04:39:59;;;;;;;10.57;4.68;;;;;;;16.87;66.56;99170.69;7710529;32;39337;-80
2023/08/31 04:44:16;;;;;;;7.07;4.60;;;;;;;16.77;67.16;99174.56;7710353;32;40765;-80
2023/08/31 04:48:33;;;;;;;7.97;4.60;;;;;;;16.91;66.92;99181.84;7707736;32;38519;-81
2023/08/31 04:52:50;;;;;;;7.25;4.37;;;;;;;16.85;67.09;99176.50;7710170;32;38064;-80
2023/08/31 04:57:07;;;;;;;8.35;5.30;;;;;;;17.06;66.89;99184.84;7710015;32;39408;-81
2023/08/31 05:01:23;;;;;;;9.02;4.60;;;;;;;16.88;67.03;99181.38;7711664;32;39884;-81
2023/08/31 05:05:41;;;;;;;10.02;4.57;;;;;;;17.05;66.42;99187.94;7713196;32;37924;-81
2023/08/31 05:09:58;;;;;;;7.15;4.43;;;;;;;17.19;66.02;99194.03;7713195;32;37648;-80
2023/08/31 05:14:14;;;;;;;7.70;4.85;;;;;;;17.27;66.14;99203.41;7702634;32;40280;-80
2023/08/31 05:18:30;;;;;;;10.38;4.70;;;;;;;17.11;66.82;99208.66;7686410;32;40036;-80
2023/08/31 05:22:46;;;;;;;8.05;5.18;;;;;;;17.04;67.13;99211.09;7686262;32;38453;-80
2023/08/31 05:27:03;;;;;;;8.27;5.05;;;;;;;16.56;68.09;99212.97;7686280;32;36870;-80
2023/08/31 05:31:19;;;;;;;8.30;4.87;;;;;;;16.96;67.12;99226.50;7686251;32;40045;-80
2023/08/31 05:35:37;;;;;;;8.02;4.90;;;;;;;17.26;65.91;99227.41;7686245;32;40003;-79
2023/08/31 05:39:53;;;;;;;18.15;13.75;;;;;;;17.52;65.39;99236.69;7686194;32;38475;-80
2023/08/31 05:44:10;;;;;;;14.25;7.60;;;;;;;17.26;66.21;99243.09;7686030;32;37989;-80
2023/08/31 05:48:26;;;;;;;13.52;7.30;;;;;;;17.08;66.62;99239.59;7686866;32;40029;-80
2023/08/31 05:52:44;;;;;;;10.50;6.43;;;;;;;17.07;66.17;99246.25;7685988;32;39873;-80
2023/08/31 05:57:02;;;;;;;9.25;5.43;;;;;;;16.75;68.02;99251.16;7685915;32;38737;-80
2023/08/31 06:01:19;;;;;;;10.90;5.62;;;;;;;16.89;67.27;99249.03;7685974;32;37076;-80
2023/08/31 06:05:36;;;;;;;8.73;5.12;;;;;;;16.82;67.81;99248.72;7685988;32;39892;-80
2023/08/31 06:09:52;;;;;;;7.85;5.00;;;;;;;16.81;68.27;99258.09;7685850;32;39973;-81
2023/08/31 06:14:08;;;;;;;11.30;5.60;;;;;;;16.92;67.99;99260.53;7696374;32;38409;-80
2023/08/31 06:18:25;;;;;;;18.73;5.53;;;;;;;16.99;68.12;99264.41;7712426;32;38075;-80
2023/08/31 06:22:42;;;;;;;8.23;4.87;;;;;;;16.88;68.23;99263.97;7712217;32;39372;-80
2023/08/31 06:26:59;;;;;;;7.78;4.93;;;;;;;16.80;68.63;99275.75;7712115;32;39902;-81
2023/08/31 06:31:15;;;;;;;9.50;5.37;;;;;;;16.80;68.65;99280.44;7711980;32;38641;-80
2023/08/31 06:35:31;;;;;;;8.63;4.90;;;;;;;16.87;68.95;99287.09;7712104;32;37077;-80
2023/08/31 06:39:48;;;;;;;8.43;4.95;;;;;;;17.03;67.12;99297.59;7712142;32;39313;-80
2023/08/31 06:44:05;;;;;;;7.57;4.87;;;;;;;17.31;66.44;99287.00;7711639;32;40708;-79
2023/08/31 06:48:21;;;;;;;6.35;4.00;;;;;;;17.29;66.02;99294.00;7685409;32;37895;-72
2023/08/31 06:52:37;;;;;;;9.57;4.72;;;;;;;17.92;65.44;99297.81;7685357;32;37150;-72
2023/08/31 06:56:54;;;;;;;7.72;4.28;;;;;;;17.61;64.72;99306.34;7692700;32;39391;-72
2023/08/31 07:01:12;;;;;;;9.27;4.68;;;;;;;17.79;64.14;99307.06;7700388;32;39925;-73
2023/08/31 07:05:32;;;;;;;9.30;4.50;;;;;;;17.69;63.75;99307.44;7706030;32;37707;-76
2023/08/31 07:09:49;;;;;;;7.15;4.40;;;;;;;17.76;63.79;99319.56;7692051;32;37715;-81
2023/08/31 07:14:05;;;;;;;11.35;4.30;;;;;;;17.83;63.85;99314.37;7685143;32;39901;-78
2023/08/31 07:18:21;;;;;;;10.35;4.47;;;;;;;17.93;63.53;99324.22;7685224;32;40962;-80
2023/08/31 07:22:40;;;;;;;6.55;4.12;;;;;;;18.10;63.03;99317.81;7684249;32;37827;-80
2023/08/31 07:26:56;;;;;;;7.93;4.07;;;;;;;18.19;63.27;99320.50;7683817;32;36455;-79
2023/08/31 07:31:13;;;;;;;6.72;4.45;;;;;;;18.67;61.82;99329.44;7690330;32;39307;-80
2023/08/31 07:35:30;;;;;;;6.55;3.95;;;;;;;18.75;60.87;99325.81;7704152;32;40136;-81
2023/08/31 07:39:46;;;;;;;6.35;3.47;;;;;;;18.93;61.21;99332.00;7693952;32;38104;-83
2023/08/31 07:44:03;;;;;;;8.10;4.22;;;;;;;18.83;61.09;99337.94;7696205;32;38030;-80
2023/08/31 07:48:21;;;;;;;9.23;4.87;;;;;;;18.55;62.24;99338.44;7691154;32;40892;-80
2023/08/31 07:52:38;;;;;;;6.82;4.37;;;;;;;18.66;61.71;99338.84;7706000;32;39973;-80
2023/08/31 07:56:54;;;;;;;4.47;3.80;;;;;;;18.86;60.99;99331.75;7721028;32;37825;-81
2023/08/31 08:01:10;;;;;;;8.23;3.67;;;;;;;18.95;60.81;99340.75;7723072;32;37041;-80
2023/08/31 08:05:28;;;;;;;8.05;4.12;;;;;;;18.91;61.20;99345.34;7712078;32;39130;-80
2023/08/31 08:09:44;;;;;;;6.70;3.72;;;;;;;18.55;61.25;99339.25;7710991;32;40096;-81
2023/08/31 08:14:00;;;;;;;8.45;4.15;;;;;;;18.68;61.60;99348.44;7711081;32;38623;-78
2023/08/31 08:18:16;;;;;;;6.53;3.62;;;;;;;19.02;61.10;99348.50;7710940;32;36786;-81
2023/08/31 08:22:33;;;;;;;7.37;3.90;;;;;;;19.47;59.31;99351.28;7710706;32;39118;-81
2023/08/31 08:26:49;;;;;;;7.87;3.75;;;;;;;18.92;60.92;99357.97;7697821;32;40828;-80
2023/08/31 08:31:05;;;;;;;6.97;4.00;;;;;;;19.44;59.95;99368.56;7706775;32;37870;-81
2023/08/31 08:35:22;;;;;;;7.28;4.40;;;;;;;19.38;59.33;99369.91;7708777;32;37223;-82
2023/08/31 08:39:38;;;;;;;5.78;3.62;;;;;;;19.26;59.74;99372.62;7708712;32;40239;-81
2023/08/31 08:43:56;;;;;;;6.47;4.05;;;;;;;19.28;60.83;99373.09;7709806;32;39874;-79
2023/08/31 08:48:13;;;;;;;6.00;3.87;;;;;;;19.42;59.14;99372.78;7687781;32;37590;-73
2023/08/31 08:52:30;;;;;;;7.72;4.37;;;;;;;19.49;59.37;99370.31;7683346;32;38643;-73
2023/08/31 08:56:46;;;;;;;6.57;3.50;;;;;;;19.32;59.31;99365.75;7682793;32;40046;-74
2023/08/31 09:01:03;;;;;;;6.97;4.10;;;;;;;19.35;59.83;99376.13;7683083;32;40830;-78
2023/08/31 09:05:20;;;;;;;6.18;3.15;;;;;;;19.80;57.59;99380.88;7682647;32;37989;-78
2023/08/31 09:09:50;;;;;;;8.00;3.67;;;;;;;20.10;56.62;99377.88;7682313;32;37932;-78
2023/08/31 09:14:17;;;;;;;4.80;3.40;;;;;;;19.93;56.46;99380.88;7683114;32;39150;-79
2023/08/31 09:18:34;;;;;;;5.32;3.53;;;;;;;19.77;55.79;99381.56;7681861;32;39898;-78
2023/08/31 09:22:52;;;;;;;7.35;3.60;;;;;;;20.23;55.90;99382.28;7682673;32;37988;-79
2023/08/31 09:27:10;;;;;;;5.60;2.97;;;;;;;20.60;54.61;99395.28;7681947;32;37059;-79
2023/08/31 09:31:30;;;;;;;6.53;3.60;;;;;;;20.48;55.55;99384.22;7707979;32;38601;-79
2023/08/31 09:35:57;;;;;;;5.15;3.10;;;;;;;20.71;55.03;99390.09;7707445;32;40655;-79
2023/08/31 09:40:15;;;;;;;4.97;3.10;;;;;;;20.96;55.06;99379.75;7707989;32;37768;-79
2023/08/31 09:44:31;;;;;;;6.32;3.03;;;;;;;21.38;53.93;99394.00;7708726;32;36021;-78
2023/08/31 09:48:48;;;;;;;4.45;2.70;;;;;;;21.73;52.74;99392.56;7711080;32;40123;-79
2023/08/31 09:53:08;;;;;;;4.72;2.53;;;;;;;21.64;51.21;99398.28;7712513;32;40069;-79
2023/08/31 09:57:25;;;;;;;4.62;2.60;;;;;;;21.80;50.00;99394.72;7711983;32;37805;-78
2023/08/31 10:02:01;;;;;;;3.22;2.40;;;;;;;22.17;49.01;99397.25;7711733;32;37638;-79
2023/08/31 10:06:19;;;;;;;5.95;2.20;;;;;;;22.01;49.43;99400.81;7712058;32;39236;-79
2023/08/31 10:10:36;;;;;;;2.72;2.00;;;;;;;22.09;48.05;99413.72;7710402;32;40019;-79
2023/08/31 10:14:54;;;;;;;2.95;1.80;;;;;;;22.21;48.15;99414.78;7710964;32;37750;-79
2023/08/31 10:19:10;;;;;;;4.55;1.92;;;;;;;22.24;47.49;99414.06;7711387;32;37078;-79
2023/08/31 10:23:27;;;;;;;3.20;2.10;;;;;;;23.19;46.46;99402.72;7701903;32;39805;-79
2023/08/31 10:27:51;;;;;;;2.87;2.03;;;;;;;23.30;44.14;99397.41;7709824;32;40740;-79
2023/08/31 10:32:07;;;;;;;3.53;2.00;;;;;;;23.09;46.69;99402.50;7695942;32;37862;-79
2023/08/31 10:36:36;;;;;;;5.35;2.28;;;;;;;23.28;45.69;99405.28;7693060;32;37268;-79
2023/08/31 10:41:09;;;;;;;2.70;2.10;;;;;;;23.57;44.92;99406.63;7699896;32;40652;-78
2023/08/31 10:45:26;;;;;;;5.55;2.60;;;;;;;23.24;46.21;99421.09;7698297;32;39880;-78
2023/08/31 10:49:50;;;;;;;5.78;2.80;;;;;;;22.52;48.59;99419.50;7697175;32;37996;-78
2023/08/31 10:54:13;;;;;;;4.22;2.72;;;;;;;22.60;47.89;99423.28;7695529;32;36869;-78
2023/08/31 10:58:33;;;;;;;5.07;2.87;;;;;;;22.43;46.92;99428.03;7694927;32;40025;-79
2023/08/31 11:02:50;;;;;;;5.00;2.60;;;;;;;23.05;47.05;99424.66;7692834;32;39946;-79
2023/08/31 11:07:14;;;;;;;3.45;2.40;;;;;;;23.62;46.36;99414.69;7684823;32;37641;-80
2023/08/31 11:11:38;;;;;;;4.25;2.85;;;;;;;23.58;45.62;99419.38;7684132;32;37027;-80
2023/08/31 11:15:54;;;;;;;3.33;2.50;;;;;;;23.99;43.90;99425.34;7702967;32;39299;-80
2023/08/31 11:20:16;;;;;;;3.80;2.35;;;;;;;23.58;43.18;99435.28;7710254;32;41100;-80
2023/08/31 11:24:34;;;;;;;4.40;2.28;;;;;;;23.78;43.07;99433.25;7710400;32;37951;-80
2023/08/31 11:28:50;;;;;;;2.85;2.00;;;;;;;23.15;43.13;99440.78;7696122;32;36722;-85
2023/08/31 11:33:08;;;;;;;3.80;2.25;;;;;;;23.57;40.72;99445.59;7684182;32;40125;-82
2023/08/31 11:37:26;;;;;;;2.80;1.90;;;;;;;23.18;40.38;99440.06;7705213;32;39757;-81
2023/08/31 11:41:43;;;;;;;2.90;1.90;;;;;;;23.85;40.10;99440.97;7706685;32;38744;-81
2023/08/31 11:46:03;;;;;;;3.20;2.03;;;;;;;24.13;39.63;99437.91;7694917;32;37027;-82
2023/08/31 11:50:22;;;;;;;2.45;1.80;;;;;;;24.95;37.36;99424.41;7698027;32;39151;-82
2023/08/31 11:54:39;;;;;;;3.30;2.00;;;;;;;25.61;36.18;99422.06;7696043;32;40800;-81
2023/08/31 11:58:56;;;;;;;3.40;2.05;;;;;;;25.49;36.10;99434.28;7685102;32;38655;-81
2023/08/31 12:03:20;;;;;;;2.70;1.90;;;;;;;25.02;37.60;99432.06;7684409;32;37421;-82
2023/08/31 12:07:42;;;;;;;4.37;2.10;;;;;;;25.20;38.16;99426.72;7684609;32;40168;-82
2023/08/31 12:12:00;;;;;;;4.03;1.70;;;;;;;25.57;37.82;99426.00;7684305;32;39949;-82
2023/08/31 12:16:18;;;;;;;2.42;1.70;;;;;;;25.48;37.21;99427.09;7684374;32;37889;-81
2023/08/31 12:20:42;;;;;;;2.12;1.62;;;;;;;25.44;36.25;99429.03;7684330;32;36868;-82
2023/08/31 12:24:58;;;;;;;2.05;1.60;;;;;;;25.66;35.94;99432.88;7693627;32;39377;-82
2023/08/31 12:29:15;;;;;;;3.50;1.90;;;;;;;25.86;35.17;99425.09;7694239;32;40606;-82
2023/08/31 12:33:33;;;;;;;3.25;1.77;;;;;;;26.18;34.48;99424.63;7696329;32;38598;-81
2023/08/31 12:37:50;;;;;;;2.33;1.73;;;;;;;25.90;33.40;99418.75;7695927;32;37138;-82
2023/08/31 12:42:06;;;;;;;1.70;1.60;;;;;;;26.03;33.84;99420.09;7696701;32;40133;-82
2023/08/31 12:46:39;;;;;;;2.95;1.80;;;;;;;26.39;32.79;99421.19;7690133;32;40808;-85
2023/08/31 12:50:55;;;;;;;2.05;1.60;;;;;;;26.95;32.77;99423.94;7687835;32;39420;-73
2023/08/31 12:55:12;;;;;;;1.60;1.50;;;;;;;27.32;31.91;99425.72;7695344;32;37722;-72
2023/08/31 12:59:28;;;;;;;2.03;1.60;;;;;;;27.36;31.56;99418.16;7695981;32;39367;-73
2023/08/31 13:03:46;;;;;;;5.70;1.77;;;;;;;27.64;32.75;99417.41;7694643;32;40499;-75
2023/08/31 13:08:03;;;;;;;4.03;1.70;;;;;;;26.64;32.98;99422.56;7694926;32;36959;-74
2023/08/31 13:12:19;;;;;;;3.53;2.00;;;;;;;27.01;32.94;99418.78;7695569;32;37206;-75
2023/08/31 13:16:39;;;;;;;5.87;1.52;;;;;;;27.14;32.62;99422.84;7695247;32;40077;-73
2023/08/31 13:20:56;;;;;;;2.47;1.85;;;;;;;28.07;32.39;99409.09;7696555;32;39889;-74
2023/08/31 13:25:12;;;;;;;2.72;1.60;;;;;;;27.39;32.89;99422.16;7709390;32;37965;-72
2023/08/31 13:29:30;;;;;;;3.28;1.62;;;;;;;26.87;33.29;99427.88;7693963;32;37774;-72
2023/08/31 13:33:47;;;;;;;1.95;1.65;;;;;;;26.86;34.35;99423.50;7690391;32;39344;-71
2023/08/31 13:38:04;;;;;;;3.42;1.80;;;;;;;27.27;31.97;99423.28;7699081;32;39700;-72
2023/08/31 13:42:23;;;;;;;2.53;1.60;;;;;;;27.23;33.04;99428.84;7702016;32;38774;-83
2023/08/31 13:46:39;;;;;;;3.15;1.70;;;;;;;27.16;32.23;99431.63;7712845;32;37071;-82
2023/08/31 13:50:56;;;;;;;3.20;2.00;;;;;;;27.71;31.09;99425.03;7712754;32;40116;-82
2023/08/31 13:55:12;;;;;;;1.65;1.52;;;;;;;27.01;32.48;99433.56;7712742;32;40063;-79
2023/08/31 13:59:28;;;;;;;2.85;1.80;;;;;;;26.70;33.53;99443.38;7712749;32;38706;-85
2023/08/31 14:03:45;;;;;;;2.53;1.50;;;;;;;27.05;32.31;99439.97;7711468;32;37610;-82
2023/08/31 14:08:04;;;;;;;2.87;1.73;;;;;;;25.96;33.59;99450.75;7711417;32;39329;-82
2023/08/31 14:12:21;;;;;;;5.47;1.83;;;;;;;26.11;34.08;99449.66;7711289;32;39008;-81
2023/08/31 14:16:38;;;;;;;4.37;1.80;;;;;;;25.76;34.34;99456.50;7712469;32;38087;-82
2023/08/31 14:20:54;;;;;;;2.75;1.62;;;;;;;25.53;34.15;99456.66;7712421;32;37891;-82
2023/08/31 14:25:11;;;;;;;3.33;1.60;;;;;;;25.98;34.17;99460.34;7712148;32;39837;-82
2023/08/31 14:29:28;;;;;;;3.55;1.90;;;;;;;26.73;34.51;99459.37;7712316;32;40077;-82
2023/08/31 14:33:44;;;;;;;3.08;1.70;;;;;;;26.69;34.25;99455.75;7711118;32;38067;-81
2023/08/31 14:38:01;;;;;;;2.42;1.62;;;;;;;26.88;33.06;99461.06;7712184;32;37082;-82
2023/08/31 14:42:20;;;;;;;4.00;1.70;;;;;;;27.14;32.89;99476.00;7712236;32;39272;-81
2023/08/31 14:46:37;;;;;;;3.12;1.60;;;;;;;27.34;32.05;99480.13;7712033;32;40639;-82
2023/08/31 14:50:53;;;;;;;4.10;1.70;;;;;;;27.34;31.47;99480.13;7712031;32;38056;-82
2023/08/31 14:55:10;;;;;;;3.17;1.80;;;;;;;27.67;31.69;99475.44;7712079;32;37334;-82
2023/08/31 14:59:26;;;;;;;3.05;1.55;;;;;;;27.33;32.65;99480.50;7711988;32;40143;-81
2023/08/31 15:03:43;;;;;;;8.82;1.92;;;;;;;27.04;32.28;99485.13;7711822;32;40480;-80
2023/08/31 15:07:59;;;;;;;3.40;2.03;;;;;;;26.75;32.70;99490.53;7711604;32;38658;-81
2023/08/31 15:12:16;;;;;;;3.42;1.87;;;;;;;26.00;33.49;99490.69;7711446;32;38628;-80
2023/08/31 15:16:33;;;;;;;2.75;1.85;;;;;;;25.82;34.39;99485.69;7709036;32;37645;-80
2023/08/31 15:20:50;;;;;;;2.78;1.90;;;;;;;25.90;34.71;99502.50;7695487;32;40699;-80
2023/08/31 15:25:07;;;;;;;4.68;2.20;;;;;;;25.76;34.80;99505.94;7695539;32;37941;-80
2023/08/31 15:29:23;;;;;;;5.10;2.85;;;;;;;25.63;34.87;99505.37;7696712;32;37022;-80
2023/08/31 15:33:41;;;;;;;3.47;1.60;;;;;;;25.73;35.52;99504.72;7695316;32;39522;-80
2023/08/31 15:37:59;;;;;;;3.70;1.62;;;;;;;25.97;35.06;99510.97;7695447;32;41511;-79
2023/08/31 15:42:15;;;;;;;2.47;1.70;;;;;;;26.51;33.88;99514.28;7696583;32;38975;-80
2023/08/31 15:46:31;;;;;;;2.62;1.45;;;;;;;26.02;34.41;99516.22;7695439;32;37119;-80
2023/08/31 15:50:48;;;;;;;2.85;1.65;;;;;;;25.65;34.34;99519.78;7688866;32;40155;-80
2023/08/31 15:55:07;;;;;;;3.53;1.70;;;;;;;25.91;34.22;99518.88;7708037;32;39643;-80
2023/08/31 15:59:24;;;;;;;2.28;1.50;;;;;;;26.38;34.39;99520.16;7710968;32;38786;-79
2023/08/31 16:03:41;;;;;;;4.28;1.65;;;;;;;26.01;34.14;99523.81;7709803;32;37139;-80
2023/08/31 16:07:58;;;;;;;3.90;1.67;;;;;;;26.52;33.60;99513.87;7710679;32;39897;-80
2023/08/31 16:12:15;;;;;;;5.05;1.55;;;;;;;26.26;32.35;99522.44;7710498;32;39931;-80
2023/08/31 16:16:33;;;;;;;5.53;1.95;;;;;;;26.26;32.64;99525.25;7710488;32;37806;-80
2023/08/31 16:20:49;;;;;;;2.95;1.17;;;;;;;25.99;31.81;99536.53;7710513;32;37261;-79
2023/08/31 16:25:07;;;;;;;1.30;1.20;;;;;;;26.04;32.27;99538.97;7710066;32;39281;-80
2023/08/31 16:29:24;;;;;;;3.90;1.30;;;;;;;26.20;31.45;99533.19;7710330;32;39960;-80
2023/08/31 16:33:40;;;;;;;1.92;1.20;;;;;;;25.77;33.00;99535.47;7710004;32;38665;-79
2023/08/31 16:37:56;;;;;;;1.75;1.30;;;;;;;25.77;32.05;99533.50;7710234;32;37771;-79
2023/08/31 16:42:16;;;;;;;6.60;1.25;;;;;;;25.77;31.80;99527.91;7709983;32;39083;-79
2023/08/31 16:46:33;;;;;;;2.22;1.50;;;;;;;25.53;32.96;99543.16;7710116;32;40766;-80
2023/08/31 16:50:49;;;;;;;3.08;1.35;;;;;;;25.21;33.21;99542.69;7709962;32;37925;-80
2023/08/31 16:55:06;;;;;;;2.62;1.60;;;;;;;25.10;33.18;99540.56;7709828;32;37213;-80
2023/08/31 16:59:24;;;;;;;3.00;1.40;;;;;;;25.26;33.91;99534.03;7713040;32;39352;-80
2023/08/31 17:03:46;;;;;;;3.15;1.33;;;;;;;25.24;33.71;99536.37;7712813;32;39924;-80
2023/08/31 17:08:05;;;;;;;1.95;1.48;;;;;;;25.09;35.85;99536.16;7712793;32;39002;-79
2023/08/31 17:12:21;;;;;;;3.42;1.27;;;;;;;25.23;35.76;99543.09;7712704;32;37874;-79
2023/08/31 17:16:38;;;;;;;4.18;1.50;;;;;;;25.22;35.49;99541.53;7712840;32;39406;-79
2023/08/31 17:20:55;;;;;;;2.47;1.30;;;;;;;24.87;35.77;99550.94;7712770;32;38740;-79
2023/08/31 17:25:12;;;;;;;2.50;1.27;;;;;;;24.70;36.53;99557.88;7712166;32;37961;-80
2023/08/31 17:29:29;;;;;;;3.35;1.40;;;;;;;24.60;35.87;99553.72;7710885;32;36876;-79
2023/08/31 17:33:50;;;;;;;4.43;1.27;;;;;;;24.20;37.37;99571.69;7709433;32;40353;-81
2023/08/31 17:38:07;;;;;;;2.92;1.60;;;;;;;24.21;37.38;99572.47;7685661;32;39909;-81
2023/08/31 17:42:23;;;;;;;1.40;1.30;;;;;;;23.98;37.95;99585.19;7706735;32;37942;-81
2023/08/31 17:46:40;;;;;;;2.15;1.52;;;;;;;23.50;39.61;99589.31;7708358;32;37409;-81
2023/08/31 17:50:57;;;;;;;2.00;1.35;;;;;;;23.31;40.83;99599.22;7696081;32;40043;-81
2023/08/31 17:55:14;;;;;;;6.03;2.03;;;;;;;23.18;41.62;99608.84;7689220;32;40738;-80
2023/08/31 17:59:30;;;;;;;4.47;2.17;;;;;;;23.03;42.07;99610.47;7700019;32;38705;-80
2023/08/31 18:03:46;;;;;;;7.10;2.40;;;;;;;22.86;42.83;99623.56;7705133;32;37012;-80
2023/08/31 18:08:03;;;;;;;4.15;1.83;;;;;;;22.77;43.14;99631.28;7685569;32;39179;-80
2023/08/31 18:12:20;;;;;;;2.97;1.90;;;;;;;22.47;43.94;99628.91;7685769;32;40783;-80
2023/08/31 18:16:36;;;;;;;3.53;1.80;;;;;;;22.39;44.31;99643.78;7698724;32;37931;-80
2023/08/31 18:21:02;;;;;;;4.00;1.98;;;;;;;22.12;45.36;99648.13;7718510;32;37006;-80
2023/08/31 18:25:19;;;;;;;3.37;1.25;;;;;;;22.02;44.96;99654.19;7712699;32;39375;-80
2023/08/31 18:29:36;;;;;;;3.78;1.83;;;;;;;22.04;44.98;99660.19;7716179;32;40117;-80
2023/08/31 18:33:52;;;;;;;4.72;1.75;;;;;;;21.90;45.14;99660.56;7721146;32;37955;-80
2023/08/31 18:38:08;;;;;;;4.07;1.80;;;;;;;21.72;45.73;99683.06;7712233;32;37896;-80
2023/08/31 18:42:24;;;;;;;3.12;1.60;;;;;;;21.76;45.29;99692.28;7712206;32;39279;-80
2023/08/31 18:46:41;;;;;;;4.65;2.00;;;;;;;21.76;45.21;99695.06;7712021;32;39668;-82
2023/08/31 18:50:59;;;;;;;4.37;1.67;;;;;;;21.71;45.14;99695.31;7711877;32;38640;-81
2023/08/31 18:55:15;;;;;;;2.67;1.75;;;;;;;21.55;45.92;99694.41;7712421;32;36607;-81
2023/08/31 18:59:32;;;;;;;3.45;1.83;;;;;;;21.45;46.33;99689.28;7710000;32;39468;-82
2023/08/31 19:03:51;;;;;;;2.53;1.70;;;;;;;21.26;46.54;99703.75;7684460;32;39957;-81
2023/08/31 19:08:07;;;;;;;3.03;1.80;;;;;;;21.08;47.43;99703.16;7698488;32;38478;-80
2023/08/31 19:12:25;;;;;;;5.70;1.95;;;;;;;21.08;47.17;99695.63;7711591;32;37860;-81
2023/08/31 19:16:41;;;;;;;5.43;2.15;;;;;;;20.98;47.68;99696.09;7711095;32;39361;-80
2023/08/31 19:21:07;;;;;;;3.33;1.98;;;;;;;20.82;47.88;99709.81;7684917;32;40743;-80
2023/08/31 19:25:35;;;;;;;4.72;1.98;;;;;;;20.64;48.37;99717.47;7715429;32;38758;-79
2023/08/31 19:29:53;;;;;;;5.45;1.92;;;;;;;20.48;49.28;99719.25;7721160;32;37118;-79
2023/08/31 19:34:10;;;;;;;4.30;2.05;;;;;;;20.52;49.05;99720.16;7724362;32;39083;-79
2023/08/31 19:38:27;;;;;;;3.87;1.45;;;;;;;20.51;49.05;99727.69;7701057;32;40639;-81
2023/08/31 19:42:43;;;;;;;5.57;2.05;;;;;;;20.42;48.90;99730.53;7705190;32;37890;-80
2023/08/31 19:47:00;;;;;;;2.40;1.60;;;;;;;20.22;50.14;99734.13;7696921;32;37132;-79
2023/08/31 19:51:30;;;;;;;3.55;1.87;;;;;;;20.25;49.82;99734.25;7696472;32;40024;-79
2023/08/31 19:55:48;;;;;;;2.90;1.73;;;;;;;20.50;49.07;99737.13;7695546;32;39718;-79
2023/08/31 20:00:06;;;;;;;2.20;1.80;;;;;;;20.52;49.00;99739.56;7694268;32;37876;-81
2023/08/31 20:04:24;;;;;;;2.17;1.70;;;;;;;20.33;49.40;99751.13;7696778;32;37068;-81
2023/08/31 20:08:40;;;;;;;2.78;1.77;;;;;;;20.34;49.29;99747.22;7696623;32;39390;-80
2023/08/31 20:12:58;;;;;;;5.05;2.33;;;;;;;20.00;50.14;99746.31;7698296;32;39932;-81
2023/08/31 20:17:15;;;;;;;6.00;1.80;;;;;;;20.16;49.65;99750.13;7694123;32;37886;-80